sensor_id;sensor_type;location;lat;lon;timestamp;pressure;altitude;pressure_sealevel;temperature;humidity
78671;BME280;68277;52.724;6.516;2023-04-06T00:01:29;101893.72;;;2.99;55.38
78671;BME280;68277;52.724;6.516;2023-04-06T00:03:54;101896.16;;;2.92;54.75
78671;BME280;68277;52.724;6.516;2023-04-06T00:06:21;101925.25;;;3.05;55.50
78671;BME280;68277;52.724;6.516;2023-04-06T00:08:46;101882.72;;;2.78;55.52
78671;BME280;68277;52.724;6.516;2023-04-06T00:11:12;101908.41;;;2.94;55.17
78671;BME280;68277;52.724;6.516;2023-04-06T00:13:37;101875.63;;;2.72;57.17
78671;BME280;68277;52.724;6.516;2023-04-06T00:16:03;101886.31;;;2.83;55.12
78671;BME280;68277;52.724;6.516;2023-04-06T00:18:30;101888.91;;;2.82;55.78
78671;BME280;68277;52.724;6.516;2023-04-06T00:20:56;101849.84;;;2.53;55.78
78671;BME280;68277;52.724;6.516;2023-04-06T00:23:21;101903.78;;;2.83;56.78
78671;BME280;68277;52.724;6.516;2023-04-06T00:25:47;101893.84;;;2.71;56.13
78671;BME280;68277;52.724;6.516;2023-04-06T00:28:15;101873.56;;;2.61;55.68
78671;BME280;68277;52.724;6.516;2023-04-06T00:30:42;101854.94;;;2.49;55.42
78671;BME280;68277;52.724;6.516;2023-04-06T00:33:09;101896.41;;;2.68;56.50
78671;BME280;68277;52.724;6.516;2023-04-06T00:35:36;101864.53;;;2.50;56.26
78671;BME280;68277;52.724;6.516;2023-04-06T00:38:01;101861.00;;;2.48;55.88
78671;BME280;68277;52.724;6.516;2023-04-06T00:40:27;101846.06;;;2.42;55.18
78671;BME280;68277;52.724;6.516;2023-04-06T00:42:54;101839.72;;;2.33;55.66
78671;BME280;68277;52.724;6.516;2023-04-06T00:45:20;101804.34;;;2.13;57.16
78671;BME280;68277;52.724;6.516;2023-04-06T00:47:45;101852.78;;;2.33;55.89
78671;BME280;68277;52.724;6.516;2023-04-06T00:50:11;101811.25;;;2.11;55.58
78671;BME280;68277;52.724;6.516;2023-04-06T00:52:36;101789.13;;;1.98;56.23
78671;BME280;68277;52.724;6.516;2023-04-06T00:55:05;101856.25;;;2.33;56.53
78671;BME280;68277;52.724;6.516;2023-04-06T00:57:35;101862.44;;;2.35;55.93
78671;BME280;68277;52.724;6.516;2023-04-06T01:00:01;101819.00;;;2.07;56.82
78671;BME280;68277;52.724;6.516;2023-04-06T01:02:29;101837.69;;;2.23;57.06
78671;BME280;68277;52.724;6.516;2023-04-06T01:04:55;101850.97;;;2.30;57.11
78671;BME280;68277;52.724;6.516;2023-04-06T01:07:27;101854.47;;;2.31;57.39
78671;BME280;68277;52.724;6.516;2023-04-06T01:10:04;101764.19;;;1.76;57.66
78671;BME280;68277;52.724;6.516;2023-04-06T01:12:33;101773.16;;;1.86;56.96
78671;BME280;68277;52.724;6.516;2023-04-06T01:15:02;101806.66;;;2.02;56.79
78671;BME280;68277;52.724;6.516;2023-04-06T01:17:31;101811.88;;;2.02;57.16
78671;BME280;68277;52.724;6.516;2023-04-06T01:20:05;101837.53;;;2.17;57.42
78671;BME280;68277;52.724;6.516;2023-04-06T01:22:31;101791.56;;;1.90;57.08
78671;BME280;68277;52.724;6.516;2023-04-06T01:25:00;101830.38;;;2.10;56.70
78671;BME280;68277;52.724;6.516;2023-04-06T01:27:45;101835.50;;;2.06;57.02
78671;BME280;68277;52.724;6.516;2023-04-06T01:30:11;101796.53;;;1.81;56.84
78671;BME280;68277;52.724;6.516;2023-04-06T01:32:43;101807.94;;;1.86;57.29
78671;BME280;68277;52.724;6.516;2023-04-06T01:35:13;101825.69;;;1.98;57.94
78671;BME280;68277;52.724;6.516;2023-04-06T01:37:46;101806.09;;;1.82;58.39
78671;BME280;68277;52.724;6.516;2023-04-06T01:40:20;101786.56;;;1.68;58.27
78671;BME280;68277;52.724;6.516;2023-04-06T01:42:50;101773.22;;;1.58;58.32
78671;BME280;68277;52.724;6.516;2023-04-06T01:45:24;101821.66;;;1.79;59.09
78671;BME280;68277;52.724;6.516;2023-04-06T01:47:53;101802.31;;;1.71;58.51
78671;BME280;68277;52.724;6.516;2023-04-06T01:50:21;101801.44;;;1.71;58.74
78671;BME280;68277;52.724;6.516;2023-04-06T01:52:47;101719.91;;;1.18;57.94
78671;BME280;68277;52.724;6.516;2023-04-06T01:55:13;101755.28;;;1.38;58.89
78671;BME280;68277;52.724;6.516;2023-04-06T01:58:09;101760.50;;;1.38;59.55
78671;BME280;68277;52.724;6.516;2023-04-06T02:00:37;101760.41;;;1.35;58.68
78671;BME280;68277;52.724;6.516;2023-04-06T02:03:03;101804.59;;;1.61;59.89
78671;BME280;68277;52.724;6.516;2023-04-06T02:05:31;101818.56;;;1.63;58.25
78671;BME280;68277;52.724;6.516;2023-04-06T02:07:59;101773.66;;;1.43;58.69
78671;BME280;68277;52.724;6.516;2023-04-06T02:10:32;101815.78;;;1.57;60.13
78671;BME280;68277;52.724;6.516;2023-04-06T02:13:01;101797.13;;;1.43;58.50
78671;BME280;68277;52.724;6.516;2023-04-06T02:15:27;101780.44;;;1.36;60.96
78671;BME280;68277;52.724;6.516;2023-04-06T02:17:53;101791.69;;;1.35;59.46
78671;BME280;68277;52.724;6.516;2023-04-06T02:20:19;101777.66;;;1.32;59.19
78671;BME280;68277;52.724;6.516;2023-04-06T02:22:45;101801.47;;;1.43;60.59
78671;BME280;68277;52.724;6.516;2023-04-06T02:25:11;101790.66;;;1.30;59.00
78671;BME280;68277;52.724;6.516;2023-04-06T02:27:37;101782.81;;;1.29;59.29
78671;BME280;68277;52.724;6.516;2023-04-06T02:30:03;101803.94;;;1.38;60.97
78671;BME280;68277;52.724;6.516;2023-04-06T02:32:29;101728.00;;;0.99;58.88
78671;BME280;68277;52.724;6.516;2023-04-06T02:34:55;101747.41;;;1.09;59.81
78671;BME280;68277;52.724;6.516;2023-04-06T02:37:22;101752.69;;;1.10;59.12
78671;BME280;68277;52.724;6.516;2023-04-06T02:39:49;101780.13;;;1.27;59.85
78671;BME280;68277;52.724;6.516;2023-04-06T02:42:15;101785.34;;;1.27;58.56
78671;BME280;68277;52.724;6.516;2023-04-06T02:44:42;101753.41;;;1.06;61.76
78671;BME280;68277;52.724;6.516;2023-04-06T02:47:08;101732.00;;;0.88;61.99
78671;BME280;68277;52.724;6.516;2023-04-06T02:49:35;101777.13;;;1.14;60.58
78671;BME280;68277;52.724;6.516;2023-04-06T02:52:04;101747.22;;;1.01;59.65
78671;BME280;68277;52.724;6.516;2023-04-06T02:54:38;101795.50;;;1.18;60.10
78671;BME280;68277;52.724;6.516;2023-04-06T02:57:04;101749.59;;;0.95;60.03
78671;BME280;68277;52.724;6.516;2023-04-06T02:59:48;101777.84;;;1.08;59.84
78671;BME280;68277;52.724;6.516;2023-04-06T03:02:22;101788.41;;;1.13;59.23
78671;BME280;68277;52.724;6.516;2023-04-06T03:04:48;101750.25;;;0.88;61.26
78671;BME280;68277;52.724;6.516;2023-04-06T03:07:25;101783.03;;;1.08;61.27
78671;BME280;68277;52.724;6.516;2023-04-06T03:09:50;101762.78;;;1.00;61.35
78671;BME280;68277;52.724;6.516;2023-04-06T03:12:16;101760.00;;;0.94;60.22
78671;BME280;68277;52.724;6.516;2023-04-06T03:15:02;101780.19;;;1.01;60.67
78671;BME280;68277;52.724;6.516;2023-04-06T03:17:29;101751.97;;;0.88;59.75
78671;BME280;68277;52.724;6.516;2023-04-06T03:19:59;101755.28;;;0.82;61.41
78671;BME280;68277;52.724;6.516;2023-04-06T03:22:25;101740.22;;;0.74;61.39
78671;BME280;68277;52.724;6.516;2023-04-06T03:24:51;101730.47;;;0.66;61.90
78671;BME280;68277;52.724;6.516;2023-04-06T03:27:16;101745.53;;;0.77;61.63
78671;BME280;68277;52.724;6.516;2023-04-06T03:29:43;101776.34;;;0.90;63.78
78671;BME280;68277;52.724;6.516;2023-04-06T03:32:14;101763.09;;;0.82;60.88
78671;BME280;68277;52.724;6.516;2023-04-06T03:34:40;101740.16;;;0.71;61.94
78671;BME280;68277;52.724;6.516;2023-04-06T03:37:07;101755.28;;;0.82;61.79
78671;BME280;68277;52.724;6.516;2023-04-06T03:39:34;101747.16;;;0.73;60.67
78671;BME280;68277;52.724;6.516;2023-04-06T03:42:00;101762.97;;;0.78;60.09
78671;BME280;68277;52.724;6.516;2023-04-06T03:44:34;101770.03;;;0.82;61.00
78671;BME280;68277;52.724;6.516;2023-04-06T03:46:59;101768.22;;;0.79;60.94
78671;BME280;68277;52.724;6.516;2023-04-06T03:49:25;101718.63;;;0.49;61.56
78671;BME280;68277;52.724;6.516;2023-04-06T03:51:52;101723.88;;;0.51;60.76
78671;BME280;68277;52.724;6.516;2023-04-06T03:54:18;101727.47;;;0.54;62.80
78671;BME280;68277;52.724;6.516;2023-04-06T03:56:43;101744.03;;;0.56;62.04
78671;BME280;68277;52.724;6.516;2023-04-06T03:59:09;101746.69;;;0.58;62.81
78671;BME280;68277;52.724;6.516;2023-04-06T04:01:34;101743.94;;;0.53;61.70
78671;BME280;68277;52.724;6.516;2023-04-06T04:04:01;101733.22;;;0.44;62.24
78671;BME280;68277;52.724;6.516;2023-04-06T04:06:27;101726.19;;;0.42;62.26
78671;BME280;68277;52.724;6.516;2023-04-06T04:08:52;101759.75;;;0.59;63.63
78671;BME280;68277;52.724;6.516;2023-04-06T04:11:18;101728.81;;;0.42;63.33
78671;BME280;68277;52.724;6.516;2023-04-06T04:13:47;101703.09;;;0.26;62.12
78671;BME280;68277;52.724;6.516;2023-04-06T04:16:12;101718.66;;;0.24;63.44
78671;BME280;68277;52.724;6.516;2023-04-06T04:18:38;101703.63;;;0.16;62.05
78671;BME280;68277;52.724;6.516;2023-04-06T04:21:05;101729.22;;;0.29;61.83
78671;BME280;68277;52.724;6.516;2023-04-06T04:23:30;101718.66;;;0.24;63.41
78671;BME280;68277;52.724;6.516;2023-04-06T04:25:56;101723.84;;;0.24;64.39
78671;BME280;68277;52.724;6.516;2023-04-06T04:28:22;101731.75;;;0.26;61.98
78671;BME280;68277;52.724;6.516;2023-04-06T04:30:49;101725.53;;;0.22;66.03
78671;BME280;68277;52.724;6.516;2023-04-06T04:33:15;101725.50;;;0.21;62.70
78671;BME280;68277;52.724;6.516;2023-04-06T04:35:42;101727.16;;;0.19;62.26
78671;BME280;68277;52.724;6.516;2023-04-06T04:38:10;101746.59;;;0.28;62.30
78671;BME280;68277;52.724;6.516;2023-04-06T04:40:39;101744.91;;;0.30;62.79
78671;BME280;68277;52.724;6.516;2023-04-06T04:43:07;101729.06;;;0.24;65.71
78671;BME280;68277;52.724;6.516;2023-04-06T04:45:33;101715.72;;;0.14;64.58
78671;BME280;68277;52.724;6.516;2023-04-06T04:48:08;101744.00;;;0.30;65.56
78671;BME280;68277;52.724;6.516;2023-04-06T04:50:45;101753.75;;;0.35;65.70
78671;BME280;68277;52.724;6.516;2023-04-06T04:53:12;101723.78;;;0.21;63.77
78671;BME280;68277;52.724;6.516;2023-04-06T04:55:39;101746.88;;;0.37;61.93
78671;BME280;68277;52.724;6.516;2023-04-06T04:58:05;101677.81;;;-0.04;69.80
78671;BME280;68277;52.724;6.516;2023-04-06T05:01:02;101714.03;;;0.16;64.96
78671;BME280;68277;52.724;6.516;2023-04-06T05:03:28;101705.31;;;0.14;62.65
78671;BME280;68277;52.724;6.516;2023-04-06T05:06:01;101737.19;;;0.33;65.05
78671;BME280;68277;52.724;6.516;2023-04-06T05:08:30;101731.00;;;0.30;65.43
78671;BME280;68277;52.724;6.516;2023-04-06T05:10:57;101732.97;;;0.37;63.61
78671;BME280;68277;52.724;6.516;2023-04-06T05:13:23;101734.03;;;0.43;64.63
78671;BME280;68277;52.724;6.516;2023-04-06T05:15:50;101699.66;;;0.27;63.93
78671;BME280;68277;52.724;6.516;2023-04-06T05:18:23;101718.38;;;0.42;65.36
78671;BME280;68277;52.724;6.516;2023-04-06T05:20:48;101705.25;;;0.39;65.15
78671;BME280;68277;52.724;6.516;2023-04-06T05:23:15;101745.91;;;0.60;63.57
78671;BME280;68277;52.724;6.516;2023-04-06T05:25:41;101743.47;;;0.66;63.28
78671;BME280;68277;52.724;6.516;2023-04-06T05:28:15;101678.97;;;0.31;62.99
78671;BME280;68277;52.724;6.516;2023-04-06T05:30:42;101745.50;;;0.75;64.20
78671;BME280;68277;52.724;6.516;2023-04-06T05:33:10;101703.16;;;0.54;66.34
78671;BME280;68277;52.724;6.516;2023-04-06T05:35:56;101738.00;;;0.86;64.41
78671;BME280;68277;52.724;6.516;2023-04-06T05:38:22;101716.06;;;0.78;65.03
78671;BME280;68277;52.724;6.516;2023-04-06T05:40:48;101709.25;;;0.83;63.24
78671;BME280;68277;52.724;6.516;2023-04-06T05:43:17;101643.25;;;0.54;66.18
78671;BME280;68277;52.724;6.516;2023-04-06T05:45:49;101731.09;;;1.14;67.61
78671;BME280;68277;52.724;6.516;2023-04-06T05:48:15;101701.22;;;1.03;63.18
78671;BME280;68277;52.724;6.516;2023-04-06T05:50:40;101716.50;;;1.21;62.22
78671;BME280;68277;52.724;6.516;2023-04-06T05:53:08;101669.88;;;1.02;63.45
78671;BME280;68277;52.724;6.516;2023-04-06T05:55:39;101726.09;;;1.52;62.69
78671;BME280;68277;52.724;6.516;2023-04-06T05:58:10;101728.25;;;1.66;67.60
78671;BME280;68277;52.724;6.516;2023-04-06T06:00:35;101687.06;;;1.55;63.18
78671;BME280;68277;52.724;6.516;2023-04-06T06:03:04;101639.75;;;1.43;61.67
78671;BME280;68277;52.724;6.516;2023-04-06T06:05:32;101673.88;;;1.81;61.55
78671;BME280;68277;52.724;6.516;2023-04-06T06:08:04;101657.44;;;1.85;61.81
78671;BME280;68277;52.724;6.516;2023-04-06T06:10:30;101688.97;;;2.29;60.36
78671;BME280;68277;52.724;6.516;2023-04-06T06:12:57;101696.78;;;2.61;60.65
78671;BME280;68277;52.724;6.516;2023-04-06T06:15:24;101665.56;;;2.69;59.63
78671;BME280;68277;52.724;6.516;2023-04-06T06:17:49;101694.13;;;3.85;58.09
78671;BME280;68277;52.724;6.516;2023-04-06T06:20:16;101669.41;;;5.42;54.22
78671;BME280;68277;52.724;6.516;2023-04-06T06:22:42;101671.63;;;6.90;51.00
78671;BME280;68277;52.724;6.516;2023-04-06T06:25:12;101697.47;;;7.81;49.23
78671;BME280;68277;52.724;6.516;2023-04-06T06:27:40;101685.16;;;7.80;49.13
78671;BME280;68277;52.724;6.516;2023-04-06T06:30:06;101683.53;;;8.35;47.30
78671;BME280;68277;52.724;6.516;2023-04-06T06:32:32;101658.91;;;8.46;46.85
78671;BME280;68277;52.724;6.516;2023-04-06T06:34:58;101657.97;;;7.90;47.87
78671;BME280;68277;52.724;6.516;2023-04-06T06:37:23;101654.31;;;7.38;50.45
78671;BME280;68277;52.724;6.516;2023-04-06T06:39:49;101698.00;;;7.00;51.45
78671;BME280;68277;52.724;6.516;2023-04-06T06:42:15;101697.56;;;6.35;54.45
78671;BME280;68277;52.724;6.516;2023-04-06T06:44:51;101693.69;;;5.95;55.86
78671;BME280;68277;52.724;6.516;2023-04-06T06:47:17;101691.22;;;6.10;54.63
78671;BME280;68277;52.724;6.516;2023-04-06T06:49:43;101681.09;;;6.57;53.93
78671;BME280;68277;52.724;6.516;2023-04-06T06:52:08;101661.09;;;6.84;51.79
78671;BME280;68277;52.724;6.516;2023-04-06T06:54:34;101692.69;;;6.90;51.28
78671;BME280;68277;52.724;6.516;2023-04-06T06:57:00;101657.47;;;6.67;53.26
78671;BME280;68277;52.724;6.516;2023-04-06T06:59:26;101633.09;;;6.99;53.50
78671;BME280;68277;52.724;6.516;2023-04-06T07:01:52;101685.16;;;7.72;50.95
78671;BME280;68277;52.724;6.516;2023-04-06T07:04:18;101651.78;;;7.62;50.73
78671;BME280;68277;52.724;6.516;2023-04-06T07:06:44;101669.28;;;7.48;50.65
78671;BME280;68277;52.724;6.516;2023-04-06T07:09:10;101626.94;;;6.95;50.88
78671;BME280;68277;52.724;6.516;2023-04-06T07:11:36;101607.50;;;6.67;52.26
78671;BME280;68277;52.724;6.516;2023-04-06T07:14:01;101681.28;;;6.87;50.60
78671;BME280;68277;52.724;6.516;2023-04-06T07:16:28;101662.78;;;6.73;52.54
78671;BME280;68277;52.724;6.516;2023-04-06T07:18:54;101653.94;;;6.62;50.90
78671;BME280;68277;52.724;6.516;2023-04-06T07:21:20;101656.50;;;6.53;51.80
78671;BME280;68277;52.724;6.516;2023-04-06T07:23:45;101673.13;;;6.49;52.94
78671;BME280;68277;52.724;6.516;2023-04-06T07:26:13;101637.03;;;6.27;52.68
78671;BME280;68277;52.724;6.516;2023-04-06T07:28:39;101638.88;;;6.40;52.59
78671;BME280;68277;52.724;6.516;2023-04-06T07:31:05;101642.53;;;6.60;52.08
78671;BME280;68277;52.724;6.516;2023-04-06T07:33:30;101668.34;;;7.34;51.18
78671;BME280;68277;52.724;6.516;2023-04-06T07:35:57;101672.94;;;8.18;49.42
78671;BME280;68277;52.724;6.516;2023-04-06T07:38:24;101662.38;;;7.95;49.81
78671;BME280;68277;52.724;6.516;2023-04-06T07:40:50;101648.25;;;7.66;49.98
78671;BME280;68277;52.724;6.516;2023-04-06T07:43:16;101619.22;;;7.34;51.62
78671;BME280;68277;52.724;6.516;2023-04-06T07:45:42;101658.84;;;7.96;51.45
78671;BME280;68277;52.724;6.516;2023-04-06T07:48:07;101624.59;;;7.98;50.40
78671;BME280;68277;52.724;6.516;2023-04-06T07:50:33;101647.47;;;8.40;49.68
78671;BME280;68277;52.724;6.516;2023-04-06T07:52:59;101665.94;;;8.59;50.00
78671;BME280;68277;52.724;6.516;2023-04-06T07:55:26;101666.81;;;8.54;49.76
78671;BME280;68277;52.724;6.516;2023-04-06T07:57:51;101656.28;;;8.33;48.59
78671;BME280;68277;52.724;6.516;2023-04-06T08:00:17;101642.22;;;8.31;50.41
78671;BME280;68277;52.724;6.516;2023-04-06T08:02:43;101659.78;;;8.54;49.53
78671;BME280;68277;52.724;6.516;2023-04-06T08:05:09;101661.47;;;8.87;50.12
78671;BME280;68277;52.724;6.516;2023-04-06T08:07:34;101635.88;;;9.13;49.69
78671;BME280;68277;52.724;6.516;2023-04-06T08:10:01;101603.41;;;8.84;49.40
78671;BME280;68277;52.724;6.516;2023-04-06T08:12:26;101615.63;;;9.18;49.22
78671;BME280;68277;52.724;6.516;2023-04-06T08:14:52;101623.25;;;9.71;48.94
78671;BME280;68277;52.724;6.516;2023-04-06T08:17:20;101649.28;;;10.27;48.20
78671;BME280;68277;52.724;6.516;2023-04-06T08:19:46;101613.44;;;9.91;47.70
78671;BME280;68277;52.724;6.516;2023-04-06T08:22:11;101658.41;;;9.82;48.16
78671;BME280;68277;52.724;6.516;2023-04-06T08:24:37;101660.44;;;11.41;44.76
78671;BME280;68277;52.724;6.516;2023-04-06T08:27:03;101610.97;;;12.55;40.74
78671;BME280;68277;52.724;6.516;2023-04-06T08:29:29;101598.59;;;12.98;39.59
78671;BME280;68277;52.724;6.516;2023-04-06T08:31:54;101636.81;;;12.91;39.43
78671;BME280;68277;52.724;6.516;2023-04-06T08:34:21;101631.66;;;12.34;41.47
78671;BME280;68277;52.724;6.516;2023-04-06T08:36:46;101632.50;;;12.36;42.58
78671;BME280;68277;52.724;6.516;2023-04-06T08:39:12;101642.88;;;11.98;43.04
78671;BME280;68277;52.724;6.516;2023-04-06T08:41:38;101563.63;;;11.15;43.23
78671;BME280;68277;52.724;6.516;2023-04-06T08:44:06;101598.00;;;11.21;44.36
78671;BME280;68277;52.724;6.516;2023-04-06T08:46:32;101608.50;;;11.30;44.45
78671;BME280;68277;52.724;6.516;2023-04-06T08:48:59;101528.97;;;10.64;44.27
78671;BME280;68277;52.724;6.516;2023-04-06T08:51:25;101606.28;;;10.93;44.62
78671;BME280;68277;52.724;6.516;2023-04-06T08:53:55;101631.53;;;11.23;44.51
78671;BME280;68277;52.724;6.516;2023-04-06T08:56:22;101630.66;;;11.23;43.91
78671;BME280;68277;52.724;6.516;2023-04-06T08:58:48;101597.31;;;11.05;43.23
78671;BME280;68277;52.724;6.516;2023-04-06T09:01:14;101575.50;;;10.83;43.19
78671;BME280;68277;52.724;6.516;2023-04-06T09:03:42;101522.28;;;10.32;43.73
78671;BME280;68277;52.724;6.516;2023-04-06T09:06:09;101560.03;;;10.47;44.22
78671;BME280;68277;52.724;6.516;2023-04-06T09:08:39;101555.72;;;10.37;44.51
78671;BME280;68277;52.724;6.516;2023-04-06T09:11:07;101618.06;;;10.67;43.21
78671;BME280;68277;52.724;6.516;2023-04-06T09:13:46;101624.31;;;10.60;44.47
78671;BME280;68277;52.724;6.516;2023-04-06T09:16:11;101581.25;;;10.41;44.24
78671;BME280;68277;52.724;6.516;2023-04-06T09:18:37;101560.03;;;10.50;42.71
78671;BME280;68277;52.724;6.516;2023-04-06T09:21:05;101533.47;;;10.56;43.99
78671;BME280;68277;52.724;6.516;2023-04-06T09:23:30;101583.16;;;11.08;43.32
78671;BME280;68277;52.724;6.516;2023-04-06T09:26:09;101618.69;;;11.57;42.40
78671;BME280;68277;52.724;6.516;2023-04-06T09:28:49;101614.19;;;11.68;41.84
78671;BME280;68277;52.724;6.516;2023-04-06T09:31:21;101595.50;;;11.74;41.67
78671;BME280;68277;52.724;6.516;2023-04-06T09:33:47;101585.00;;;11.65;41.62
78671;BME280;68277;52.724;6.516;2023-04-06T09:36:13;101604.56;;;11.58;41.11
78671;BME280;68277;52.724;6.516;2023-04-06T09:41:26;101606.22;;;11.68;41.17
78671;BME280;68277;52.724;6.516;2023-04-06T09:44:01;101588.31;;;11.82;39.92
78671;BME280;68277;52.724;6.516;2023-04-06T09:46:29;101584.31;;;12.10;39.65
78671;BME280;68277;52.724;6.516;2023-04-06T09:48:56;101586.47;;;12.85;39.85
78671;BME280;68277;52.724;6.516;2023-04-06T09:51:23;101597.00;;;12.89;38.47
78671;BME280;68277;52.724;6.516;2023-04-06T09:53:52;101550.22;;;12.38;38.88
78671;BME280;68277;52.724;6.516;2023-04-06T09:56:23;101510.72;;;12.21;39.40
78671;BME280;68277;52.724;6.516;2023-04-06T09:58:57;101554.44;;;12.92;38.77
78671;BME280;68277;52.724;6.516;2023-04-06T10:01:28;101524.81;;;12.69;38.03
78671;BME280;68277;52.724;6.516;2023-04-06T10:06:23;101557.03;;;12.53;40.83
78671;BME280;68277;52.724;6.516;2023-04-06T10:08:51;101557.44;;;12.74;38.66
78671;BME280;68277;52.724;6.516;2023-04-06T10:11:19;101504.47;;;12.68;40.00
78671;BME280;68277;52.724;6.516;2023-04-06T10:13:45;101577.16;;;13.48;39.23
78671;BME280;68277;52.724;6.516;2023-04-06T10:16:14;101517.47;;;12.82;38.30
78671;BME280;68277;52.724;6.516;2023-04-06T10:18:42;101521.50;;;12.58;38.77
78671;BME280;68277;52.724;6.516;2023-04-06T10:21:13;101524.69;;;12.29;40.48
78671;BME280;68277;52.724;6.516;2023-04-06T10:23:43;101573.78;;;12.55;40.29
78671;BME280;68277;52.724;6.516;2023-04-06T10:26:19;101570.25;;;12.54;40.67
78671;BME280;68277;52.724;6.516;2023-04-06T10:28:47;101548.13;;;12.54;40.35
78671;BME280;68277;52.724;6.516;2023-04-06T10:31:13;101573.88;;;12.49;39.10
78671;BME280;68277;52.724;6.516;2023-04-06T10:33:39;101569.50;;;12.46;38.96
78671;BME280;68277;52.724;6.516;2023-04-06T10:38:39;101502.88;;;12.14;38.88
78671;BME280;68277;52.724;6.516;2023-04-06T10:41:09;101559.84;;;12.42;39.68
78671;BME280;68277;52.724;6.516;2023-04-06T10:43:37;101522.28;;;12.17;39.37
78671;BME280;68277;52.724;6.516;2023-04-06T10:46:05;101563.69;;;12.26;38.96
78671;BME280;68277;52.724;6.516;2023-04-06T10:48:41;101555.22;;;12.04;38.38
78671;BME280;68277;52.724;6.516;2023-04-06T10:51:10;101557.56;;;12.22;39.40
78671;BME280;68277;52.724;6.516;2023-04-06T10:53:36;101530.22;;;12.19;39.35
78671;BME280;68277;52.724;6.516;2023-04-06T10:56:04;101510.25;;;12.46;39.84
78671;BME280;68277;52.724;6.516;2023-04-06T10:58:35;101498.72;;;12.47;38.02
78671;BME280;68277;52.724;6.516;2023-04-06T11:01:00;101549.91;;;12.97;38.05
78671;BME280;68277;52.724;6.516;2023-04-06T11:03:26;101515.75;;;12.79;38.51
78671;BME280;68277;52.724;6.516;2023-04-06T11:05:52;101497.69;;;12.55;37.94
78671;BME280;68277;52.724;6.516;2023-04-06T11:08:26;101549.16;;;12.91;38.38
78671;BME280;68277;52.724;6.516;2023-04-06T11:10:51;101530.84;;;12.77;38.14
78671;BME280;68277;52.724;6.516;2023-04-06T11:13:17;101533.84;;;12.61;36.35
78671;BME280;68277;52.724;6.516;2023-04-06T11:15:42;101521.72;;;12.46;37.77
78671;BME280;68277;52.724;6.516;2023-04-06T11:18:08;101509.66;;;12.30;37.05
78671;BME280;68277;52.724;6.516;2023-04-06T11:20:33;101507.88;;;12.30;37.69
78671;BME280;68277;52.724;6.516;2023-04-06T11:22:59;101533.88;;;12.58;37.56
78671;BME280;68277;52.724;6.516;2023-04-06T11:25:25;101526.78;;;12.60;37.34
78671;BME280;68277;52.724;6.516;2023-04-06T11:27:53;101516.09;;;12.63;37.17
78671;BME280;68277;52.724;6.516;2023-04-06T11:30:18;101528.97;;;12.82;37.19
78671;BME280;68277;52.724;6.516;2023-04-06T11:32:45;101494.00;;;12.61;36.78
78671;BME280;68277;52.724;6.516;2023-04-06T11:35:14;101534.09;;;12.91;36.94
78671;BME280;68277;52.724;6.516;2023-04-06T11:37:44;101537.38;;;13.04;36.99
78671;BME280;68277;52.724;6.516;2023-04-06T11:40:10;101487.88;;;13.00;36.46
78671;BME280;68277;52.724;6.516;2023-04-06T11:42:35;101491.53;;;13.34;36.78
78671;BME280;68277;52.724;6.516;2023-04-06T11:45:01;101464.28;;;13.25;34.78
78671;BME280;68277;52.724;6.516;2023-04-06T11:47:28;101506.19;;;13.87;35.82
78671;BME280;68277;52.724;6.516;2023-04-06T11:49:55;101449.56;;;13.82;35.73
78671;BME280;68277;52.724;6.516;2023-04-06T11:52:25;101477.97;;;14.14;35.51
78671;BME280;68277;52.724;6.516;2023-04-06T11:54:52;101485.72;;;14.23;33.94
78671;BME280;68277;52.724;6.516;2023-04-06T11:57:20;101465.31;;;13.90;34.64
78671;BME280;68277;52.724;6.516;2023-04-06T11:59:47;101496.56;;;13.82;35.31
78671;BME280;68277;52.724;6.516;2023-04-06T12:02:13;101503.97;;;13.69;35.29
78671;BME280;68277;52.724;6.516;2023-04-06T12:04:39;101447.38;;;13.27;35.52
78671;BME280;68277;52.724;6.516;2023-04-06T12:07:05;101482.72;;;13.31;36.57
78671;BME280;68277;52.724;6.516;2023-04-06T12:09:31;101508.03;;;13.48;37.17
78671;BME280;68277;52.724;6.516;2023-04-06T12:11:57;101513.34;;;13.48;37.14
78671;BME280;68277;52.724;6.516;2023-04-06T12:14:22;101480.06;;;13.32;37.26
78671;BME280;68277;52.724;6.516;2023-04-06T12:16:48;101495.56;;;13.50;37.25
78671;BME280;68277;52.724;6.516;2023-04-06T12:19:13;101510.69;;;13.48;36.46
78671;BME280;68277;52.724;6.516;2023-04-06T12:21:39;101505.44;;;13.45;37.21
78671;BME280;68277;52.724;6.516;2023-04-06T12:24:05;101503.41;;;13.56;36.82
78671;BME280;68277;52.724;6.516;2023-04-06T12:26:31;101465.53;;;13.47;37.74
78671;BME280;68277;52.724;6.516;2023-04-06T12:28:58;101498.47;;;13.77;36.19
78671;BME280;68277;52.724;6.516;2023-04-06T12:31:30;101496.94;;;13.68;36.14
78671;BME280;68277;52.724;6.516;2023-04-06T12:33:55;101482.44;;;13.44;37.13
78671;BME280;68277;52.724;6.516;2023-04-06T12:36:21;101503.47;;;13.53;37.64
78671;BME280;68277;52.724;6.516;2023-04-06T12:38:47;101494.81;;;13.45;38.33
78671;BME280;68277;52.724;6.516;2023-04-06T12:41:13;101468.59;;;13.29;37.17
78671;BME280;68277;52.724;6.516;2023-04-06T12:43:42;101501.78;;;13.51;38.33
78671;BME280;68277;52.724;6.516;2023-04-06T12:46:08;101455.31;;;13.29;37.65
78671;BME280;68277;52.724;6.516;2023-04-06T12:48:34;101485.16;;;13.41;39.70
78671;BME280;68277;52.724;6.516;2023-04-06T12:51:01;101466.94;;;13.25;38.29
78671;BME280;68277;52.724;6.516;2023-04-06T12:53:27;101463.78;;;13.08;39.21
78671;BME280;68277;52.724;6.516;2023-04-06T12:55:54;101506.19;;;13.14;39.82
78671;BME280;68277;52.724;6.516;2023-04-06T12:58:21;101499.94;;;13.16;39.77
78671;BME280;68277;52.724;6.516;2023-04-06T13:00:47;101501.81;;;13.10;40.05
78671;BME280;68277;52.724;6.516;2023-04-06T13:03:15;101482.91;;;12.83;39.83
78671;BME280;68277;52.724;6.516;2023-04-06T13:05:45;101471.41;;;12.83;39.63
78671;BME280;68277;52.724;6.516;2023-04-06T13:08:11;101498.84;;;12.83;39.34